Terminal Aerodrome Forecast
Issued by NWS

Home | Current Version | Previous Version | Text Only | Print | Product List | Glossary On
Versions: 1 2 3 4 5 6 7 8 9 10 11 12 13 14 15 16 17 18 19 20 21
000
FTUS41 KCAR 221400 AAB
TAFFVE
TAF AMD
KFVE 221407Z 2214/2312 26007G13KT P6SM VCSH SCT008 OVC020
     FM221600 27013G22KT P6SM BKN025
     FM222000 26013KT P6SM BKN035=

USA.gov is the U.S. government's official web portal to all federal, state and local government web resources and services.